sensor_id;sensor_type;location;lat;lon;timestamp;temperature;humidity
7212;DHT22;3647;48.792;9.802;2024-02-21T05:53:58;4.60;99.90
7212;DHT22;3647;48.792;9.802;2024-02-21T05:56:25;6.20;99.90
7212;DHT22;3647;48.792;9.802;2024-02-21T05:58:52;5.00;99.90
7212;DHT22;3647;48.792;9.802;2024-02-21T06:01:18;4.60;99.90
7212;DHT22;3647;48.792;9.802;2024-02-21T06:03:47;5.00;99.90
7212;DHT22;3647;48.792;9.802;2024-02-21T06:06:13;4.50;99.90
7212;DHT22;3647;48.792;9.802;2024-02-21T06:08:40;4.30;99.90
7212;DHT22;3647;48.792;9.802;2024-02-21T06:11:09;4.20;99.90
7212;DHT22;3647;48.792;9.802;2024-02-21T06:13:38;4.20;99.90
7212;DHT22;3647;48.792;9.802;2024-02-21T06:16:06;4.20;99.90
7212;DHT22;3647;48.792;9.802;2024-02-21T06:18:35;4.20;99.90
7212;DHT22;3647;48.792;9.802;2024-02-21T06:21:02;4.20;99.90
7212;DHT22;3647;48.792;9.802;2024-02-21T06:23:31;4.20;99.90
7212;DHT22;3647;48.792;9.802;2024-02-21T06:25:58;4.20;99.90
7212;DHT22;3647;48.792;9.802;2024-02-21T06:28:27;4.20;99.90
7212;DHT22;3647;48.792;9.802;2024-02-21T06:30:53;4.10;99.90
7212;DHT22;3647;48.792;9.802;2024-02-21T06:33:20;4.30;99.90
7212;DHT22;3647;48.792;9.802;2024-02-21T06:35:50;4.20;99.90
7212;DHT22;3647;48.792;9.802;2024-02-21T06:38:18;4.10;99.90
7212;DHT22;3647;48.792;9.802;2024-02-21T06:40:45;4.80;99.90
7212;DHT22;3647;48.792;9.802;2024-02-21T06:43:17;4.10;99.90
7212;DHT22;3647;48.792;9.802;2024-02-21T06:45:46;4.20;99.90
7212;DHT22;3647;48.792;9.802;2024-02-21T06:48:16;4.40;99.90
7212;DHT22;3647;48.792;9.802;2024-02-21T06:50:43;5.00;99.90
7212;DHT22;3647;48.792;9.802;2024-02-21T06:53:10;4.70;99.90
7212;DHT22;3647;48.792;9.802;2024-02-21T06:55:37;4.40;99.90
7212;DHT22;3647;48.792;9.802;2024-02-21T06:58:04;4.50;99.90
7212;DHT22;3647;48.792;9.802;2024-02-21T07:00:34;4.60;99.90
7212;DHT22;3647;48.792;9.802;2024-02-21T07:03:02;4.60;99.90
7212;DHT22;3647;48.792;9.802;2024-02-21T07:05:29;4.60;99.90
7212;DHT22;3647;48.792;9.802;2024-02-21T07:07:56;4.60;99.90
7212;DHT22;3647;48.792;9.802;2024-02-21T07:10:23;4.60;99.90
7212;DHT22;3647;48.792;9.802;2024-02-21T07:12:50;4.70;99.90
7212;DHT22;3647;48.792;9.802;2024-02-21T07:15:18;5.00;99.90
7212;DHT22;3647;48.792;9.802;2024-02-21T07:17:45;5.40;99.90
7212;DHT22;3647;48.792;9.802;2024-02-21T07:20:13;5.00;99.90
7212;DHT22;3647;48.792;9.802;2024-02-21T07:22:40;5.20;99.90
7212;DHT22;3647;48.792;9.802;2024-02-21T07:25:07;5.30;99.90
7212;DHT22;3647;48.792;9.802;2024-02-21T07:27:34;5.30;99.90
7212;DHT22;3647;48.792;9.802;2024-02-21T07:30:03;5.40;99.90
7212;DHT22;3647;48.792;9.802;2024-02-21T07:32:30;5.50;99.90
7212;DHT22;3647;48.792;9.802;2024-02-21T07:34:57;5.50;99.90
7212;DHT22;3647;48.792;9.802;2024-02-21T07:37:25;5.60;99.90
7212;DHT22;3647;48.792;9.802;2024-02-21T07:39:52;5.60;99.90
7212;DHT22;3647;48.792;9.802;2024-02-21T07:42:19;5.60;99.90
7212;DHT22;3647;48.792;9.802;2024-02-21T07:44:46;6.70;99.90
7212;DHT22;3647;48.792;9.802;2024-02-21T07:47:12;5.70;99.90
7212;DHT22;3647;48.792;9.802;2024-02-21T07:49:44;5.80;99.90
7212;DHT22;3647;48.792;9.802;2024-02-21T07:52:11;5.90;99.90
7212;DHT22;3647;48.792;9.802;2024-02-21T07:54:39;6.00;99.90
7212;DHT22;3647;48.792;9.802;2024-02-21T07:57:07;6.10;99.90
7212;DHT22;3647;48.792;9.802;2024-02-21T07:59:34;6.10;99.90
7212;DHT22;3647;48.792;9.802;2024-02-21T08:02:01;6.20;99.90
7212;DHT22;3647;48.792;9.802;2024-02-21T08:04:28;6.30;99.90
7212;DHT22;3647;48.792;9.802;2024-02-21T08:06:55;6.40;99.90
7212;DHT22;3647;48.792;9.802;2024-02-21T08:09:24;6.80;99.90
7212;DHT22;3647;48.792;9.802;2024-02-21T08:11:54;6.80;99.90
7212;DHT22;3647;48.792;9.802;2024-02-21T08:14:21;6.60;99.90
7212;DHT22;3647;48.792;9.802;2024-02-21T08:16:50;6.70;99.90
7212;DHT22;3647;48.792;9.802;2024-02-21T08:19:17;7.70;99.90
7212;DHT22;3647;48.792;9.802;2024-02-21T08:21:44;7.30;99.90
7212;DHT22;3647;48.792;9.802;2024-02-21T08:24:12;6.90;99.90
7212;DHT22;3647;48.792;9.802;2024-02-21T08:26:40;7.00;99.90
7212;DHT22;3647;48.792;9.802;2024-02-21T08:29:08;7.00;99.90
7212;DHT22;3647;48.792;9.802;2024-02-21T08:31:35;7.20;99.90
7212;DHT22;3647;48.792;9.802;2024-02-21T08:34:02;7.10;99.90
7212;DHT22;3647;48.792;9.802;2024-02-21T08:36:30;7.10;99.90
7212;DHT22;3647;48.792;9.802;2024-02-21T08:38:58;7.20;99.90
7212;DHT22;3647;48.792;9.802;2024-02-21T08:41:25;7.30;99.90
7212;DHT22;3647;48.792;9.802;2024-02-21T08:43:53;7.40;99.90
7212;DHT22;3647;48.792;9.802;2024-02-21T08:46:21;8.00;99.90
7212;DHT22;3647;48.792;9.802;2024-02-21T08:48:49;9.20;99.90
7212;DHT22;3647;48.792;9.802;2024-02-21T08:51:17;7.60;99.90
7212;DHT22;3647;48.792;9.802;2024-02-21T08:53:44;7.80;99.90
7212;DHT22;3647;48.792;9.802;2024-02-21T08:56:11;7.90;99.90
7212;DHT22;3647;48.792;9.802;2024-02-21T08:58:39;8.00;99.90
7212;DHT22;3647;48.792;9.802;2024-02-21T09:01:07;8.10;99.90
7212;DHT22;3647;48.792;9.802;2024-02-21T09:03:37;8.10;99.90
7212;DHT22;3647;48.792;9.802;2024-02-21T09:06:04;8.20;99.90
7212;DHT22;3647;48.792;9.802;2024-02-21T09:08:32;8.30;99.90
7212;DHT22;3647;48.792;9.802;2024-02-21T09:10:59;8.40;99.90
7212;DHT22;3647;48.792;9.802;2024-02-21T09:13:27;8.40;99.90
7212;DHT22;3647;48.792;9.802;2024-02-21T09:15:54;8.70;99.90
7212;DHT22;3647;48.792;9.802;2024-02-21T09:18:20;8.60;99.90
7212;DHT22;3647;48.792;9.802;2024-02-21T09:20:49;8.70;99.90
7212;DHT22;3647;48.792;9.802;2024-02-21T09:23:16;8.80;99.90
7212;DHT22;3647;48.792;9.802;2024-02-21T09:25:45;9.00;99.90
7212;DHT22;3647;48.792;9.802;2024-02-21T09:28:12;9.10;99.90
7212;DHT22;3647;48.792;9.802;2024-02-21T09:30:39;9.20;99.90
7212;DHT22;3647;48.792;9.802;2024-02-21T09:33:06;11.40;99.90
7212;DHT22;3647;48.792;9.802;2024-02-21T09:35:33;9.30;99.90
7212;DHT22;3647;48.792;9.802;2024-02-21T09:38:01;9.40;99.90
7212;DHT22;3647;48.792;9.802;2024-02-21T09:40:29;9.50;99.90
7212;DHT22;3647;48.792;9.802;2024-02-21T09:43:02;9.60;99.90
7212;DHT22;3647;48.792;9.802;2024-02-21T09:45:32;9.60;99.90
7212;DHT22;3647;48.792;9.802;2024-02-21T09:48:17;9.50;99.90
7212;DHT22;3647;48.792;9.802;2024-02-21T09:50:47;9.50;99.90
7212;DHT22;3647;48.792;9.802;2024-02-21T09:53:16;9.50;99.90
7212;DHT22;3647;48.792;9.802;2024-02-21T09:55:45;9.50;99.90
7212;DHT22;3647;48.792;9.802;2024-02-21T09:58:13;9.50;99.90
7212;DHT22;3647;48.792;9.802;2024-02-21T10:00:40;9.60;99.90
7212;DHT22;3647;48.792;9.802;2024-02-21T10:03:07;9.70;99.90
7212;DHT22;3647;48.792;9.802;2024-02-21T10:05:35;9.80;99.90
7212;DHT22;3647;48.792;9.802;2024-02-21T10:08:04;9.80;99.90
7212;DHT22;3647;48.792;9.802;2024-02-21T10:10:42;7.70;99.90
7212;DHT22;3647;48.792;9.802;2024-02-21T10:13:10;9.90;99.90
7212;DHT22;3647;48.792;9.802;2024-02-21T10:15:37;10.10;99.90
7212;DHT22;3647;48.792;9.802;2024-02-21T10:18:05;10.20;99.90
7212;DHT22;3647;48.792;9.802;2024-02-21T10:20:33;10.00;99.90
7212;DHT22;3647;48.792;9.802;2024-02-21T10:23:04;10.10;99.90
7212;DHT22;3647;48.792;9.802;2024-02-21T10:25:34;10.20;99.90
7212;DHT22;3647;48.792;9.802;2024-02-21T10:28:03;10.30;99.90
7212;DHT22;3647;48.792;9.802;2024-02-21T10:30:30;10.30;99.90
7212;DHT22;3647;48.792;9.802;2024-02-21T10:32:57;10.50;99.90
7212;DHT22;3647;48.792;9.802;2024-02-21T10:35:28;10.60;99.90
7212;DHT22;3647;48.792;9.802;2024-02-21T10:37:55;10.70;99.90
7212;DHT22;3647;48.792;9.802;2024-02-21T10:40:24;10.70;99.90
7212;DHT22;3647;48.792;9.802;2024-02-21T10:42:56;10.80;99.90
7212;DHT22;3647;48.792;9.802;2024-02-21T10:45:30;10.90;99.90
7212;DHT22;3647;48.792;9.802;2024-02-21T10:48:08;11.60;99.90
7212;DHT22;3647;48.792;9.802;2024-02-21T10:50:44;11.20;99.90
7212;DHT22;3647;48.792;9.802;2024-02-21T10:53:22;11.40;99.90
7212;DHT22;3647;48.792;9.802;2024-02-21T10:55:56;11.50;99.90
7212;DHT22;3647;48.792;9.802;2024-02-21T10:58:25;12.30;99.90
7212;DHT22;3647;48.792;9.802;2024-02-21T11:00:55;11.50;99.90
7212;DHT22;3647;48.792;9.802;2024-02-21T11:03:22;11.40;99.90
7212;DHT22;3647;48.792;9.802;2024-02-21T11:05:49;12.10;99.90
7212;DHT22;3647;48.792;9.802;2024-02-21T11:08:17;11.40;99.90
7212;DHT22;3647;48.792;9.802;2024-02-21T11:10:46;11.50;99.90
7212;DHT22;3647;48.792;9.802;2024-02-21T11:13:13;11.50;99.90
7212;DHT22;3647;48.792;9.802;2024-02-21T11:15:40;11.60;99.90
7212;DHT22;3647;48.792;9.802;2024-02-21T11:18:09;11.70;99.90
7212;DHT22;3647;48.792;9.802;2024-02-21T11:20:37;11.70;99.90
7212;DHT22;3647;48.792;9.802;2024-02-21T11:23:04;11.90;99.90
7212;DHT22;3647;48.792;9.802;2024-02-21T11:25:31;11.80;99.90
7212;DHT22;3647;48.792;9.802;2024-02-21T11:28:00;11.90;99.90
7212;DHT22;3647;48.792;9.802;2024-02-21T11:30:27;11.80;99.90
7212;DHT22;3647;48.792;9.802;2024-02-21T11:33:00;13.20;99.90
7212;DHT22;3647;48.792;9.802;2024-02-21T11:35:33;11.70;99.90
7212;DHT22;3647;48.792;9.802;2024-02-21T11:38:10;11.70;99.90
7212;DHT22;3647;48.792;9.802;2024-02-21T11:40:40;11.70;99.90
7212;DHT22;3647;48.792;9.802;2024-02-21T11:43:07;11.90;99.90
7212;DHT22;3647;48.792;9.802;2024-02-21T11:45:34;11.90;99.90
7212;DHT22;3647;48.792;9.802;2024-02-21T11:48:02;11.90;99.90
7212;DHT22;3647;48.792;9.802;2024-02-21T11:50:33;12.10;99.90
7212;DHT22;3647;48.792;9.802;2024-02-21T11:53:00;12.80;99.90
7212;DHT22;3647;48.792;9.802;2024-02-21T11:55:28;12.20;99.90
7212;DHT22;3647;48.792;9.802;2024-02-21T11:57:55;12.40;99.90
7212;DHT22;3647;48.792;9.802;2024-02-21T12:00:23;12.40;99.90
7212;DHT22;3647;48.792;9.802;2024-02-21T12:02:51;12.40;99.90
7212;DHT22;3647;48.792;9.802;2024-02-21T12:05:19;12.40;99.90
7212;DHT22;3647;48.792;9.802;2024-02-21T12:07:47;12.40;99.90
7212;DHT22;3647;48.792;9.802;2024-02-21T12:10:15;12.30;99.90
7212;DHT22;3647;48.792;9.802;2024-02-21T12:12:41;12.40;99.90
7212;DHT22;3647;48.792;9.802;2024-02-21T12:15:08;12.40;99.90
7212;DHT22;3647;48.792;9.802;2024-02-21T12:17:36;12.50;99.90
7212;DHT22;3647;48.792;9.802;2024-02-21T12:20:04;12.50;99.90
7212;DHT22;3647;48.792;9.802;2024-02-21T12:22:35;12.50;99.90
7212;DHT22;3647;48.792;9.802;2024-02-21T12:25:04;12.60;99.90
7212;DHT22;3647;48.792;9.802;2024-02-21T12:27:43;12.60;99.90
7212;DHT22;3647;48.792;9.802;2024-02-21T12:30:10;15.00;99.90
7212;DHT22;3647;48.792;9.802;2024-02-21T12:32:41;12.60;99.90
7212;DHT22;3647;48.792;9.802;2024-02-21T12:35:08;12.70;99.90
7212;DHT22;3647;48.792;9.802;2024-02-21T12:37:35;12.70;99.90
7212;DHT22;3647;48.792;9.802;2024-02-21T12:40:05;12.70;99.90
7212;DHT22;3647;48.792;9.802;2024-02-21T12:42:33;12.80;99.90
7212;DHT22;3647;48.792;9.802;2024-02-21T12:45:01;12.90;99.90
7212;DHT22;3647;48.792;9.802;2024-02-21T12:47:29;13.00;99.90
7212;DHT22;3647;48.792;9.802;2024-02-21T12:49:56;13.10;99.90
7212;DHT22;3647;48.792;9.802;2024-02-21T12:52:23;14.40;99.90
7212;DHT22;3647;48.792;9.802;2024-02-21T12:54:50;13.20;99.90
7212;DHT22;3647;48.792;9.802;2024-02-21T12:57:18;13.10;99.90
7212;DHT22;3647;48.792;9.802;2024-02-21T12:59:45;13.10;99.90
7212;DHT22;3647;48.792;9.802;2024-02-21T13:02:15;13.20;99.90
7212;DHT22;3647;48.792;9.802;2024-02-21T13:04:42;15.40;99.90
7212;DHT22;3647;48.792;9.802;2024-02-21T13:07:09;13.30;99.90
7212;DHT22;3647;48.792;9.802;2024-02-21T13:09:36;13.30;99.90
7212;DHT22;3647;48.792;9.802;2024-02-21T13:12:03;13.20;99.90
7212;DHT22;3647;48.792;9.802;2024-02-21T13:14:32;13.20;99.90
7212;DHT22;3647;48.792;9.802;2024-02-21T13:17:00;14.30;99.90
7212;DHT22;3647;48.792;9.802;2024-02-21T13:19:27;13.20;99.90
7212;DHT22;3647;48.792;9.802;2024-02-21T13:21:54;13.00;99.90
7212;DHT22;3647;48.792;9.802;2024-02-21T13:24:21;13.10;99.90
7212;DHT22;3647;48.792;9.802;2024-02-21T13:26:48;13.10;99.90
7212;DHT22;3647;48.792;9.802;2024-02-21T13:29:15;13.00;99.90
7212;DHT22;3647;48.792;9.802;2024-02-21T13:31:44;13.10;99.90
7212;DHT22;3647;48.792;9.802;2024-02-21T13:34:11;13.10;99.90
7212;DHT22;3647;48.792;9.802;2024-02-21T13:36:38;15.00;99.90
7212;DHT22;3647;48.792;9.802;2024-02-21T13:39:05;14.60;99.90
7212;DHT22;3647;48.792;9.802;2024-02-21T13:41:32;13.00;99.90
7212;DHT22;3647;48.792;9.802;2024-02-21T13:44:00;13.00;99.90
7212;DHT22;3647;48.792;9.802;2024-02-21T13:46:26;13.00;99.90
7212;DHT22;3647;48.792;9.802;2024-02-21T13:49:03;13.00;99.90
7212;DHT22;3647;48.792;9.802;2024-02-21T13:51:32;13.00;99.90
7212;DHT22;3647;48.792;9.802;2024-02-21T13:53:59;13.00;99.90
7212;DHT22;3647;48.792;9.802;2024-02-21T13:56:26;12.90;99.90
7212;DHT22;3647;48.792;9.802;2024-02-21T13:58:53;12.90;99.90
7212;DHT22;3647;48.792;9.802;2024-02-21T14:01:20;12.90;99.90
7212;DHT22;3647;48.792;9.802;2024-02-21T14:03:47;12.80;99.90
7212;DHT22;3647;48.792;9.802;2024-02-21T14:06:15;12.80;99.90
7212;DHT22;3647;48.792;9.802;2024-02-21T14:08:42;12.80;99.90
7212;DHT22;3647;48.792;9.802;2024-02-21T14:11:09;12.70;99.90
7212;DHT22;3647;48.792;9.802;2024-02-21T14:13:36;14.60;99.90
7212;DHT22;3647;48.792;9.802;2024-02-21T14:16:09;14.60;99.90
7212;DHT22;3647;48.792;9.802;2024-02-21T14:18:38;12.50;99.90
7212;DHT22;3647;48.792;9.802;2024-02-21T14:21:06;12.50;99.90
7212;DHT22;3647;48.792;9.802;2024-02-21T14:23:35;12.50;99.90
7212;DHT22;3647;48.792;9.802;2024-02-21T14:26:01;12.50;99.90
7212;DHT22;3647;48.792;9.802;2024-02-21T14:28:28;12.50;99.90
7212;DHT22;3647;48.792;9.802;2024-02-21T14:30:55;12.50;99.90
7212;DHT22;3647;48.792;9.802;2024-02-21T14:33:23;12.40;99.90
7212;DHT22;3647;48.792;9.802;2024-02-21T14:35:50;14.60;99.90
7212;DHT22;3647;48.792;9.802;2024-02-21T14:38:18;12.60;99.90
7212;DHT22;3647;48.792;9.802;2024-02-21T14:40:47;12.50;99.90
7212;DHT22;3647;48.792;9.802;2024-02-21T14:43:14;12.50;99.90
7212;DHT22;3647;48.792;9.802;2024-02-21T14:45:41;12.50;99.90
7212;DHT22;3647;48.792;9.802;2024-02-21T14:48:08;12.40;99.90
7212;DHT22;3647;48.792;9.802;2024-02-21T14:50:35;12.40;99.90
7212;DHT22;3647;48.792;9.802;2024-02-21T14:53:02;12.40;99.90
7212;DHT22;3647;48.792;9.802;2024-02-21T14:55:29;12.30;99.90
7212;DHT22;3647;48.792;9.802;2024-02-21T14:57:57;12.60;99.90
7212;DHT22;3647;48.792;9.802;2024-02-21T15:00:24;12.20;99.90
7212;DHT22;3647;48.792;9.802;2024-02-21T15:02:55;14.40;99.90
7212;DHT22;3647;48.792;9.802;2024-02-21T15:05:23;12.20;99.90
7212;DHT22;3647;48.792;9.802;2024-02-21T15:07:50;12.20;99.90
7212;DHT22;3647;48.792;9.802;2024-02-21T15:10:17;12.10;99.90
7212;DHT22;3647;48.792;9.802;2024-02-21T15:12:44;12.10;99.90
7212;DHT22;3647;48.792;9.802;2024-02-21T15:15:13;12.10;99.90
7212;DHT22;3647;48.792;9.802;2024-02-21T15:17:40;12.00;99.90
7212;DHT22;3647;48.792;9.802;2024-02-21T15:20:08;12.10;99.90
7212;DHT22;3647;48.792;9.802;2024-02-21T15:22:36;12.10;99.90
7212;DHT22;3647;48.792;9.802;2024-02-21T15:25:04;12.10;99.90
7212;DHT22;3647;48.792;9.802;2024-02-21T15:27:31;12.10;99.90
7212;DHT22;3647;48.792;9.802;2024-02-21T15:29:58;12.20;99.90
7212;DHT22;3647;48.792;9.802;2024-02-21T15:32:26;12.40;99.90
7212;DHT22;3647;48.792;9.802;2024-02-21T15:34:54;12.10;99.90
7212;DHT22;3647;48.792;9.802;2024-02-21T15:37:20;12.10;99.90
7212;DHT22;3647;48.792;9.802;2024-02-21T15:39:47;14.20;99.90
7212;DHT22;3647;48.792;9.802;2024-02-21T15:42:14;13.50;99.90
7212;DHT22;3647;48.792;9.802;2024-02-21T15:44:41;12.10;99.90
7212;DHT22;3647;48.792;9.802;2024-02-21T15:47:08;12.10;99.90
7212;DHT22;3647;48.792;9.802;2024-02-21T15:49:37;12.10;99.90
7212;DHT22;3647;48.792;9.802;2024-02-21T15:52:05;12.00;99.90
7212;DHT22;3647;48.792;9.802;2024-02-21T15:54:32;12.00;99.90
7212;DHT22;3647;48.792;9.802;2024-02-21T15:56:59;11.90;99.90
7212;DHT22;3647;48.792;9.802;2024-02-21T15:59:25;11.90;99.90
7212;DHT22;3647;48.792;9.802;2024-02-21T16:01:52;11.80;99.90
7212;DHT22;3647;48.792;9.802;2024-02-21T16:04:20;11.70;99.90
7212;DHT22;3647;48.792;9.802;2024-02-21T16:06:49;12.90;99.90
7212;DHT22;3647;48.792;9.802;2024-02-21T16:09:17;11.50;99.90
7212;DHT22;3647;48.792;9.802;2024-02-21T16:11:44;11.40;99.90
7212;DHT22;3647;48.792;9.802;2024-02-21T16:14:11;11.40;99.90
7212;DHT22;3647;48.792;9.802;2024-02-21T16:16:37;11.30;99.90
7212;DHT22;3647;48.792;9.802;2024-02-21T16:19:05;11.20;99.90
7212;DHT22;3647;48.792;9.802;2024-02-21T16:21:32;11.10;99.90
7212;DHT22;3647;48.792;9.802;2024-02-21T16:24:02;11.10;99.90
7212;DHT22;3647;48.792;9.802;2024-02-21T16:26:29;11.10;99.90
7212;DHT22;3647;48.792;9.802;2024-02-21T16:28:56;10.90;99.90
7212;DHT22;3647;48.792;9.802;2024-02-21T16:31:23;10.80;99.90
7212;DHT22;3647;48.792;9.802;2024-02-21T16:33:50;10.70;99.90
7212;DHT22;3647;48.792;9.802;2024-02-21T16:36:20;10.70;99.90
7212;DHT22;3647;48.792;9.802;2024-02-21T16:38:49;10.60;99.90
7212;DHT22;3647;48.792;9.802;2024-02-21T16:41:18;10.60;99.90
7212;DHT22;3647;48.792;9.802;2024-02-21T16:43:45;10.50;99.90
7212;DHT22;3647;48.792;9.802;2024-02-21T16:46:13;12.10;99.90
7212;DHT22;3647;48.792;9.802;2024-02-21T16:48:41;10.50;99.90
7212;DHT22;3647;48.792;9.802;2024-02-21T16:51:08;10.40;99.90
7212;DHT22;3647;48.792;9.802;2024-02-21T16:53:35;10.40;99.90
7212;DHT22;3647;48.792;9.802;2024-02-21T16:56:02;10.40;99.90
7212;DHT22;3647;48.792;9.802;2024-02-21T16:58:32;10.40;99.90
7212;DHT22;3647;48.792;9.802;2024-02-21T17:01:02;10.30;99.90
7212;DHT22;3647;48.792;9.802;2024-02-21T17:03:32;10.00;99.90
7212;DHT22;3647;48.792;9.802;2024-02-21T17:05:59;10.20;99.90
7212;DHT22;3647;48.792;9.802;2024-02-21T17:08:26;10.20;99.90
7212;DHT22;3647;48.792;9.802;2024-02-21T17:10:54;10.20;99.90
7212;DHT22;3647;48.792;9.802;2024-02-21T17:13:21;10.00;99.90
7212;DHT22;3647;48.792;9.802;2024-02-21T17:15:51;10.00;99.90
7212;DHT22;3647;48.792;9.802;2024-02-21T17:18:18;10.00;99.90
7212;DHT22;3647;48.792;9.802;2024-02-21T17:20:45;12.30;99.90
7212;DHT22;3647;48.792;9.802;2024-02-21T17:23:13;9.90;99.90
7212;DHT22;3647;48.792;9.802;2024-02-21T17:25:41;9.80;99.90
7212;DHT22;3647;48.792;9.802;2024-02-21T17:28:08;9.80;99.90
7212;DHT22;3647;48.792;9.802;2024-02-21T17:30:34;9.80;99.90
7212;DHT22;3647;48.792;9.802;2024-02-21T17:33:04;11.00;99.90
7212;DHT22;3647;48.792;9.802;2024-02-21T17:35:32;9.70;99.90
7212;DHT22;3647;48.792;9.802;2024-02-21T17:38:01;9.70;99.90
7212;DHT22;3647;48.792;9.802;2024-02-21T17:40:28;9.60;99.90
7212;DHT22;3647;48.792;9.802;2024-02-21T17:42:55;9.70;99.90
7212;DHT22;3647;48.792;9.802;2024-02-21T17:45:23;9.60;99.90
7212;DHT22;3647;48.792;9.802;2024-02-21T17:47:49;9.60;99.90
7212;DHT22;3647;48.792;9.802;2024-02-21T17:50:19;9.60;99.90
7212;DHT22;3647;48.792;9.802;2024-02-21T17:52:46;9.60;99.90
7212;DHT22;3647;48.792;9.802;2024-02-21T17:55:13;9.60;99.90
7212;DHT22;3647;48.792;9.802;2024-02-21T17:57:40;9.60;99.90
7212;DHT22;3647;48.792;9.802;2024-02-21T18:00:09;9.70;99.90
7212;DHT22;3647;48.792;9.802;2024-02-21T18:02:38;9.60;99.90
7212;DHT22;3647;48.792;9.802;2024-02-21T18:05:05;9.70;99.90
7212;DHT22;3647;48.792;9.802;2024-02-21T18:07:34;9.70;99.90
7212;DHT22;3647;48.792;9.802;2024-02-21T18:10:02;7.70;99.90
7212;DHT22;3647;48.792;9.802;2024-02-21T18:12:30;9.70;99.90
7212;DHT22;3647;48.792;9.802;2024-02-21T18:14:58;10.70;99.90
7212;DHT22;3647;48.792;9.802;2024-02-21T18:17:26;7.50;99.90
7212;DHT22;3647;48.792;9.802;2024-02-21T18:19:53;9.80;99.90
7212;DHT22;3647;48.792;9.802;2024-02-21T18:22:20;10.00;99.90
7212;DHT22;3647;48.792;9.802;2024-02-21T18:24:49;8.20;99.90
7212;DHT22;3647;48.792;9.802;2024-02-21T18:27:16;12.00;99.90
7212;DHT22;3647;48.792;9.802;2024-02-21T18:29:43;9.80;99.90
7212;DHT22;3647;48.792;9.802;2024-02-21T18:32:11;9.70;99.90
7212;DHT22;3647;48.792;9.802;2024-02-21T18:34:38;9.70;99.90
7212;DHT22;3647;48.792;9.802;2024-02-21T18:37:05;9.70;99.90
7212;DHT22;3647;48.792;9.802;2024-02-21T18:39:32;9.70;99.90
7212;DHT22;3647;48.792;9.802;2024-02-21T18:42:01;9.60;99.90
7212;DHT22;3647;48.792;9.802;2024-02-21T18:44:28;9.60;99.90
7212;DHT22;3647;48.792;9.802;2024-02-21T18:46:55;10.40;99.90
7212;DHT22;3647;48.792;9.802;2024-02-21T18:49:22;9.50;99.90
7212;DHT22;3647;48.792;9.802;2024-02-21T18:51:50;9.60;99.90
7212;DHT22;3647;48.792;9.802;2024-02-21T18:54:17;9.70;99.90
7212;DHT22;3647;48.792;9.802;2024-02-21T18:56:45;10.70;99.90
7212;DHT22;3647;48.792;9.802;2024-02-21T18:59:18;9.60;99.90
7212;DHT22;3647;48.792;9.802;2024-02-21T19:01:45;12.10;99.90
7212;DHT22;3647;48.792;9.802;2024-02-21T19:04:12;9.40;99.90
7212;DHT22;3647;48.792;9.802;2024-02-21T19:06:39;11.80;99.90
7212;DHT22;3647;48.792;9.802;2024-02-21T19:09:06;8.30;99.90
7212;DHT22;3647;48.792;9.802;2024-02-21T19:11:33;9.30;99.90
7212;DHT22;3647;48.792;9.802;2024-02-21T19:14:01;9.40;99.90
7212;DHT22;3647;48.792;9.802;2024-02-21T19:16:30;9.50;99.90
7212;DHT22;3647;48.792;9.802;2024-02-21T19:18:56;9.70;99.90
7212;DHT22;3647;48.792;9.802;2024-02-21T19:21:24;9.30;99.90
7212;DHT22;3647;48.792;9.802;2024-02-21T19:23:51;9.30;99.90
7212;DHT22;3647;48.792;9.802;2024-02-21T19:26:20;9.30;99.90
7212;DHT22;3647;48.792;9.802;2024-02-21T19:28:47;9.30;99.90
7212;DHT22;3647;48.792;9.802;2024-02-21T19:31:14;9.30;99.90
7212;DHT22;3647;48.792;9.802;2024-02-21T19:33:42;10.70;99.90
7212;DHT22;3647;48.792;9.802;2024-02-21T19:36:09;9.30;99.90
7212;DHT22;3647;48.792;9.802;2024-02-21T19:38:36;9.20;99.90
7212;DHT22;3647;48.792;9.802;2024-02-21T19:41:04;11.40;99.90
7212;DHT22;3647;48.792;9.802;2024-02-21T19:43:32;9.20;99.90
7212;DHT22;3647;48.792;9.802;2024-02-21T19:45:59;9.20;99.90
7212;DHT22;3647;48.792;9.802;2024-02-21T19:48:27;9.20;99.90
7212;DHT22;3647;48.792;9.802;2024-02-21T19:50:56;9.20;99.90
7212;DHT22;3647;48.792;9.802;2024-02-21T19:53:23;9.10;99.90
7212;DHT22;3647;48.792;9.802;2024-02-21T19:55:50;9.20;99.90
7212;DHT22;3647;48.792;9.802;2024-02-21T19:58:17;10.00;99.90
7212;DHT22;3647;48.792;9.802;2024-02-21T20:00:44;9.10;99.90
7212;DHT22;3647;48.792;9.802;2024-02-21T20:03:11;9.10;99.90
7212;DHT22;3647;48.792;9.802;2024-02-21T20:05:38;9.70;99.90
7212;DHT22;3647;48.792;9.802;2024-02-21T20:08:09;9.10;99.90
7212;DHT22;3647;48.792;9.802;2024-02-21T20:10:37;10.70;99.90
7212;DHT22;3647;48.792;9.802;2024-02-21T20:13:04;9.10;99.90
7212;DHT22;3647;48.792;9.802;2024-02-21T20:15:31;9.20;99.90
7212;DHT22;3647;48.792;9.802;2024-02-21T20:17:58;11.40;99.90
7212;DHT22;3647;48.792;9.802;2024-02-21T20:20:25;9.50;99.90
7212;DHT22;3647;48.792;9.802;2024-02-21T20:22:53;9.60;99.90
7212;DHT22;3647;48.792;9.802;2024-02-21T20:25:21;9.70;99.90
7212;DHT22;3647;48.792;9.802;2024-02-21T20:27:48;9.70;99.90
7212;DHT22;3647;48.792;9.802;2024-02-21T20:30:16;9.60;99.90
7212;DHT22;3647;48.792;9.802;2024-02-21T20:32:43;9.50;99.90
7212;DHT22;3647;48.792;9.802;2024-02-21T20:35:10;9.50;99.90
7212;DHT22;3647;48.792;9.802;2024-02-21T20:37:37;9.60;99.90
7212;DHT22;3647;48.792;9.802;2024-02-21T20:40:05;9.60;99.90
7212;DHT22;3647;48.792;9.802;2024-02-21T20:42:38;11.30;99.90
7212;DHT22;3647;48.792;9.802;2024-02-21T20:45:06;9.70;99.90
7212;DHT22;3647;48.792;9.802;2024-02-21T20:47:34;8.00;99.90
7212;DHT22;3647;48.792;9.802;2024-02-21T20:50:01;10.00;99.90
7212;DHT22;3647;48.792;9.802;2024-02-21T20:52:29;10.10;99.90
7212;DHT22;3647;48.792;9.802;2024-02-21T20:54:56;10.20;99.90
7212;DHT22;3647;48.792;9.802;2024-02-21T20:57:23;10.30;99.90
7212;DHT22;3647;48.792;9.802;2024-02-21T20:59:53;11.40;99.90
7212;DHT22;3647;48.792;9.802;2024-02-21T21:02:20;10.70;99.90
7212;DHT22;3647;48.792;9.802;2024-02-21T21:04:47;10.80;99.90
7212;DHT22;3647;48.792;9.802;2024-02-21T21:07:14;11.00;99.90
7212;DHT22;3647;48.792;9.802;2024-02-21T21:09:41;11.30;99.90
7212;DHT22;3647;48.792;9.802;2024-02-21T21:12:08;11.50;99.90
7212;DHT22;3647;48.792;9.802;2024-02-21T21:14:35;12.90;99.90
7212;DHT22;3647;48.792;9.802;2024-02-21T21:17:05;13.00;99.90
7212;DHT22;3647;48.792;9.802;2024-02-21T21:19:32;11.80;99.90
7212;DHT22;3647;48.792;9.802;2024-02-21T21:22:00;11.80;99.90
7212;DHT22;3647;48.792;9.802;2024-02-21T21:24:28;11.90;99.90
7212;DHT22;3647;48.792;9.802;2024-02-21T21:26:56;11.90;99.90
7212;DHT22;3647;48.792;9.802;2024-02-21T21:29:23;12.90;99.90
7212;DHT22;3647;48.792;9.802;2024-02-21T21:31:50;11.90;99.90
7212;DHT22;3647;48.792;9.802;2024-02-21T21:34:18;11.90;99.90
7212;DHT22;3647;48.792;9.802;2024-02-21T21:36:46;11.90;99.90
7212;DHT22;3647;48.792;9.802;2024-02-21T21:39:13;11.90;99.90
7212;DHT22;3647;48.792;9.802;2024-02-21T21:41:42;14.10;99.90
7212;DHT22;3647;48.792;9.802;2024-02-21T21:44:09;11.80;99.90
7212;DHT22;3647;48.792;9.802;2024-02-21T21:46:36;13.90;99.90
7212;DHT22;3647;48.792;9.802;2024-02-21T21:49:06;11.70;99.90
7212;DHT22;3647;48.792;9.802;2024-02-21T21:51:34;11.70;99.90
7212;DHT22;3647;48.792;9.802;2024-02-21T21:54:01;11.60;99.90
7212;DHT22;3647;48.792;9.802;2024-02-21T21:56:30;11.50;99.90
7212;DHT22;3647;48.792;9.802;2024-02-21T21:58:57;12.70;99.90
7212;DHT22;3647;48.792;9.802;2024-02-21T22:01:26;13.40;99.90
7212;DHT22;3647;48.792;9.802;2024-02-21T22:03:53;11.40;99.90
